Flight Track Log - Related Links

Times and Time Zones

All times are in EDT time to prevent confusion due to time zone crossing. See the AAL2355 flight status page for this flight to view local times or setup timezone preferences in your user account.

Time Position Orientation Groundspeed Altitude Reporting Facility
EDT Latitude Longitude Course Direction KTS MPH feet Rate Location/Type
Tue 07:29:23 PM 25.7992 -80.3022 104° East 151 174 800  Level Miami Center
Tue 07:30:37 PM 25.7928 -80.3733 264° West 236 272 3,200 2,000 Climbing Miami Center
Tue 07:31:17 PM 25.7869 -80.4142 261° West 229 264 4,600 3,000 Climbing Miami Center
Tue 07:31:37 PM 25.7611 -80.4403 222° Southwest 257 296 6,200 2,066 Climbing Miami Center
Tue 07:32:00 PM 25.6801 -79.8938 104° East  Level FlightAware Approximate
Tue 07:32:18 PM 25.7256 -80.4372 176° South 267 307 6,700  Level Miami Center
Tue 07:32:33 PM 25.7003 -80.4100 136° Southeast 303 349 7,800 2,710 Climbing Miami Center
Tue 07:33:00 PM 25.6488 -79.7618 105° East  Level FlightAware Approximate
Tue 07:33:20 PM 25.6903 -80.3550 101° East 307 353 9,500  Level Miami Center
Tue 07:33:40 PM 25.6842 -80.3025 97° East 340 391 10,800 2,419 Climbing Miami Center
Tue 07:34:00 PM 25.6283 -79.6282 104° East  Level FlightAware Approximate
Tue 07:34:22 PM 25.6753 -80.2278 98° East 350 403 12,000  Level Miami Center
Tue 07:34:41 PM 25.6683 -80.1881 101° East 382 440 12,900 2,516 Climbing Miami Center
Tue 07:35:24 PM 25.6597 -80.1111 97° East 379 436 14,600 2,365 Climbing Miami Center
Tue 07:36:25 PM 25.6453 -79.9908 98° East 387 445 17,000 2,146 Climbing Miami Center
Tue 07:37:27 PM 25.6294 -79.8639 98° East 407 468 19,000 1,887 Climbing Miami Center
Tue 07:38:29 PM 25.6131 -79.7314 98° East 431 496 20,900 1,756 Climbing Miami Center
Tue 07:39:30 PM 25.5967 -79.5919 97° East 451 519 22,600 1,561 Climbing Miami Center
Tue 07:40:32 PM 25.5781 -79.4478 98° East 470 541 24,100 1,645 Climbing Miami Center
Tue 07:41:34 PM 25.5536 -79.2664 98° East 495 570 26,000 1,659 Climbing Miami Center
Tue 07:42:35 PM 25.5050 -79.1197 110° East 502 578 27,500 1,366 Climbing Miami Center
Tue 07:43:37 PM 25.4367 -78.9792 118° Southeast 516 594 28,800 1,306 Climbing Miami Center
Tue 07:44:39 PM 25.3650 -78.8286 118° Southeast 533 613 30,200 1,561 Climbing Miami Center
Tue 07:45:40 PM 25.2856 -78.6664 118° Southeast 543 625 32,000 1,659 Climbing Miami Center
Tue 07:46:42 PM 25.2147 -78.5192 118° Southeast 541 623 33,600 1,512 Climbing Miami Center
Tue 07:47:43 PM 25.1414 -78.3719 119° Southeast 545 627 35,100 1,561 Climbing Miami Center
Tue 07:48:45 PM 25.0697 -78.2269 119° Southeast 537 618 36,800 1,415 Climbing Miami Center
Tue 07:49:46 PM 24.9986 -78.0831 119° Southeast 533 613 38,000 1,024 Climbing Miami Center
Tue 07:50:48 PM 24.9211 -77.9258 119° Southeast 529 609 38,900 484 Climbing Miami Center
Tue 07:51:50 PM 24.8497 -77.7847 119° Southeast 528 608 39,000 49 Climbing Miami Center
Tue 07:52:51 PM 24.7783 -77.6422 119° Southeast 531 611 39,000  Level Miami Center
Tue 07:54:05 PM 24.7072 -77.5014 119° Southeast 531 611 39,000  Level Miami Center
Tue 07:55:07 PM 24.6147 -77.3181 119° Southeast 529 609 39,000  Level Miami Center
Tue 07:56:08 PM 24.5428 -77.1769 119° Southeast 527 606 39,000  Level Miami Center
Tue 07:57:22 PM 24.4722 -77.0356 119° Southeast 527 606 39,000  Level Miami Center
Tue 07:58:24 PM 24.3858 -76.8658 119° Southeast 528 608 39,000  Level Miami Center
Tue 07:59:25 PM 24.3067 -76.7106 119° Southeast 528 608 39,000  Level Miami Center
Tue 08:00:27 PM 24.2397 -76.5819 120° Southeast 529 609 39,000  Level Miami Center
Tue 08:01:28 PM 24.1675 -76.4392 119° Southeast 532 612 39,000  Level Miami Center
Tue 08:02:30 PM 24.0944 -76.2972 119° Southeast 533 613 39,000  Level Miami Center
Tue 08:03:31 PM 24.0208 -76.1575 120° Southeast 531 611 39,000  Level Miami Center
Tue 08:04:33 PM 23.9478 -76.0156 119° Southeast 531 611 39,000  Level Miami Center
Tue 08:05:34 PM 23.8603 -75.8461 119° Southeast 531 611 39,000  Level Miami Center
Tue 08:06:36 PM 23.7869 -75.7036 119° Southeast 531 611 39,000  Level Miami Center
Tue 08:07:37 PM 23.7128 -75.5622 120° Southeast 530 610 39,000  Level Miami Center
Tue 08:08:38 PM 23.6372 -75.4219 120° Southeast 530 610 39,000  Level Miami Center
Tue 08:09:40 PM 23.5633 -75.2822 120° Southeast 529 609 39,000  Level Miami Center
Tue 08:10:41 PM 23.4897 -75.1431 120° Southeast 528 608 39,000  Level Miami Center
Tue 08:11:43 PM 23.4172 -75.0056 120° Southeast 521 600 39,000  Level Miami Center
Tue 08:12:44 PM 23.3425 -74.8686 121° Southeast 522 601 39,000  Level Miami Center
Tue 08:13:45 PM 23.2672 -74.7311 121° Southeast 524 603 39,000  Level Miami Center
Tue 08:14:47 PM 23.1953 -74.5939 120° Southeast 523 602 39,000  Level Miami Center
Tue 08:15:48 PM 23.1217 -74.4581 120° Southeast 520 598 39,000  Level Miami Center
Tue 08:16:49 PM 23.0483 -74.3214 120° Southeast 520 598 39,000  Level Miami Center
Tue 08:17:51 PM 22.9753 -74.1853 120° Southeast 520 598 39,000  Level Miami Center
Tue 08:18:52 PM 22.9017 -74.0500 121° Southeast 520 598 39,000  Level Miami Center
Tue 08:19:53 PM 22.8133 -73.8875 121° Southeast 520 598 39,000  Level Miami Center
Tue 08:20:54 PM 22.7408 -73.7519 120° Southeast 519 597 39,000  Level Miami Center
Tue 08:21:56 PM 22.6675 -73.6183 121° Southeast 518 596 39,000  Level Miami Center
Tue 08:22:57 PM 22.6017 -73.4794 117° Southeast 518 596 39,000  Level Miami Center
Tue 08:23:58 PM 22.5369 -73.3397 117° Southeast 518 596 39,000  Level Miami Center
Tue 08:24:59 PM 22.4711 -73.1894 115° Southeast 517 595 39,000  Level Miami Center
Tue 08:26:01 PM 22.4083 -73.0506 116° Southeast 517 595 39,000  Level Miami Center
Tue 08:27:02 PM 22.3458 -72.9131 116° Southeast 515 593 39,000  Level Miami Center
Tue 08:28:03 PM 22.2844 -72.7753 116° Southeast 511 588 39,000  Level Miami Center
Tue 08:29:05 PM 22.2214 -72.6389 117° Southeast 510 587 39,000  Level Miami Center
Tue 08:30:06 PM 22.1614 -72.5022 115° Southeast 507 583 39,000  Level Miami Center
Tue 08:31:07 PM 22.0997 -72.3658 116° Southeast 507 583 39,000  Level Miami Center
Tue 08:32:09 PM 22.0389 -72.2300 116° Southeast 507 583 39,000  Level Miami Center
Tue 08:33:10 PM 21.9775 -72.0939 116° Southeast 506 582 39,000  Level Miami Center
Tue 08:34:11 PM 21.9139 -71.9597 117° Southeast 506 582 39,000  Level Miami Center
Tue 08:35:13 PM 21.8378 -71.7978 117° Southeast 505 581 39,000  Level Miami Center
Tue 08:36:14 PM 21.7742 -71.6631 117° Southeast 505 581 39,000  Level Miami Center
Tue 08:37:15 PM 21.7100 -71.5275 117° Southeast 505 581 39,000  Level Miami Center
Tue 08:38:16 PM 21.6458 -71.3917 117° Southeast 505 581 39,000 -49 Level Miami Center
Tue 08:39:18 PM 21.5819 -71.2553 117° Southeast 505 581 38,900 -390 Descending Miami Center
Tue 08:40:19 PM 21.5172 -71.1114 116° Southeast 509 586 38,200 -787 Descending Miami Center
Tue 08:41:20 PM 21.4492 -70.9681 117° Southeast 514 592 37,300 -1,463 Descending Miami Center
Tue 08:42:22 PM 21.3867 -70.8369 117° Southeast 498 573 35,200 -1,317 Descending Miami Center
Tue 08:43:23 PM 21.3247 -70.7036 116° Southeast 498 573 34,600 -689 Descending Miami Center
Tue 08:44:24 PM 21.2606 -70.5661 117° Southeast 502 578 33,800 -780 Descending Miami Center
Tue 08:45:26 PM 21.1953 -70.4264 117° Southeast 514 592 33,000 -390 Descending Miami Center
Tue 08:46:27 PM 21.1292 -70.2861 117° Southeast 521 600 33,000  Level Miami Center
Tue 08:47:28 PM 21.0642 -70.1489 117° Southeast 521 600 33,000  Level Miami Center
Tue 08:48:29 PM 20.9989 -70.0111 117° Southeast 521 600 33,000  Level Miami Center
Tue 08:49:43 PM 20.9206 -69.8469 117° Southeast 521 600 33,000  Level Miami Center
Tue 08:50:44 PM 20.8419 -69.6825 117° Southeast 520 598 33,000  Level Miami Center
Tue 08:51:45 PM 20.7764 -69.5472 117° Southeast 519 597 33,000  Level Miami Center
Tue 08:52:47 PM 20.7119 -69.4122 117° Southeast 515 593 33,000  Level Miami Center
Tue 08:53:48 PM 20.6475 -69.2792 117° Southeast 510 587 33,000  Level Miami Center
Tue 08:54:49 PM 20.5847 -69.1469 117° Southeast 504 580 33,000  Level Miami Center
Tue 08:55:50 PM 20.5206 -69.0164 118° Southeast 502 578 33,000  Level Miami Center
Tue 08:56:52 PM 20.4572 -68.8839 117° Southeast 501 577 33,000  Level Miami Center
Tue 08:57:53 PM 20.3928 -68.7517 117° Southeast 501 577 33,000  Level Miami Center
Tue 08:58:54 PM 20.3275 -68.6194 118° Southeast 501 577 33,000 -246 Level Miami Center
Tue 08:59:55 PM 20.2625 -68.4864 117° Southeast 501 577 32,500 -537 Descending Miami Center
Tue 09:00:57 PM 20.1844 -68.3281 118° Southeast 502 578 31,900 -634 Descending Miami Center
Tue 09:01:58 PM 20.1311 -68.2247 119° Southeast 502 578 31,200 -923 Descending Miami Center
Tue 09:02:41 PM 20.0667 -68.1000 119° Southeast 490 564 30,300 -1,107 Descending San Juan Center
Tue 09:03:41 PM 20.0000 -67.9833 121° Southeast 480 552 29,300 -950 Descending San Juan Center
Tue 09:04:41 PM 19.9333 -67.8500 118° Southeast 470 541 28,400 -843 Descending San Juan Center
Tue 09:05:42 PM 19.8833 -67.7333 114° Southeast 460 529 27,600 -793 Descending San Juan Center
Tue 09:06:42 PM 19.8500 -67.6000 105° East 450 518 26,800 -800 Descending San Juan Center
Tue 09:07:42 PM 19.8167 -67.4667 105° East 460 529 26,000 -843 Descending San Juan Center
Tue 09:08:43 PM 19.7833 -67.3333 105° East 460 529 25,100 -992 Descending San Juan Center
Tue 09:09:43 PM 19.7500 -67.2167 107° East 450 518 24,000 -1,041 Descending San Juan Center
Tue 09:10:44 PM 19.7167 -67.0833 105° East 440 506 23,000 -942 Descending San Juan Center
Tue 09:11:44 PM 19.7000 -66.9667 99° East 430 495 22,100 -950 Descending San Juan Center
Tue 09:12:44 PM 19.6167 -66.8667 131° Southeast 410 472 21,100 -992 Descending San Juan Center
Tue 09:13:45 PM 19.5500 -66.7667 125° Southeast 410 472 20,100 -992 Descending San Juan Center
Tue 09:14:45 PM 19.4833 -66.6667 125° Southeast 410 472 19,100 -950 Descending San Juan Center
Tue 09:15:45 PM 19.4167 -66.5833 130° Southeast 400 460 18,200 -694 Descending San Juan Center
Tue 09:16:46 PM 19.3333 -66.5000 137° Southeast 400 460 17,700 -446 Descending San Juan Center
Tue 09:17:46 PM 19.2667 -66.4000 125° Southeast 400 460 17,300 -397 Descending San Juan Center
Tue 09:18:47 PM 19.2000 -66.3167 130° Southeast 400 460 16,900 -298 Descending San Juan Center
Tue 09:19:47 PM 19.1333 -66.2167 125° Southeast 390 449 16,700 -250 Descending San Juan Center
Tue 09:20:47 PM 19.0667 -66.1167 125° Southeast 390 449 16,400 -298 Descending San Juan Center
Tue 09:21:48 PM 19.0000 -66.0333 130° Southeast 390 449 16,100 -298 Descending San Juan Center
Tue 09:22:48 PM 18.9167 -65.9500 137° Southeast 380 437 15,800 -347 Descending San Juan Center
Tue 09:23:49 PM 18.8500 -65.8667 130° Southeast 380 437 15,400 -744 Descending San Juan Center
Tue 09:24:49 PM 18.7833 -65.7667 125° Southeast 380 437 14,300 -1,500 Descending San Juan Center
Tue 09:25:49 PM 18.7333 -65.7000 128° Southeast 360 414 12,400 -1,835 Descending San Juan Center
Tue 09:26:50 PM 18.6667 -65.6167 130° Southeast 340 391 10,600 -1,091 Descending San Juan Center
Tue 09:27:50 PM 18.6167 -65.5500 128° Southeast 300 345 10,200 -700 Descending San Juan Center
Tue 09:28:50 PM 18.5500 -65.4833 137° Southeast 280 322 9,200 -942 Descending San Juan Center
Tue 09:29:51 PM 18.5167 -65.4167 118° Southeast 270 311 8,300 -843 Descending San Juan Center
Tue 09:30:51 PM 18.4667 -65.3667 137° Southeast 240 276 7,500 -942 Descending San Juan Center
Tue 09:31:52 PM 18.4333 -65.3167 125° Southeast 230 265 6,400 -1,140 Descending San Juan Center
Tue 09:32:52 PM 18.3833 -65.2667 136° Southeast 220 253 5,200 -1,200 Descending San Juan Center
Tue 09:33:52 PM 18.3500 -65.2167 125° Southeast 190 219 4,000 -1,091 Descending San Juan Center
Tue 09:34:53 PM 18.3167 -65.1833 136° Southeast 190 219 3,000 -645 Descending San Juan Center
Tue 09:35:53 PM 18.3167 -65.1333 90° East 180 207 2,700 -595 Descending San Juan Center
Tue 09:36:54 PM 18.3333 -65.0833 71° East 160 184 1,800 -744 Descending San Juan Center
Tue 09:37:54 PM 18.3167 -65.0333 109° East 110 127 1,200 -600 Descending San Juan Center
Tue 09:38:54 PM 18.3333 -65.0000 62° Northeast 130 150 600 -600 Descending San Juan Center

Login

Don't have an account? Register now (free) for customized features, flight alerts, and more!